createdAt,value
2023-02-19T00:01:57.669Z,95
2023-02-19T00:05:22.938Z,95
2023-02-19T00:08:48.207Z,96
2023-02-19T00:12:13.460Z,96
2023-02-19T00:15:38.690Z,96
2023-02-19T00:19:03.944Z,96
2023-02-19T00:22:29.216Z,96
2023-02-19T00:25:54.456Z,96
2023-02-19T00:29:19.725Z,96
2023-02-19T00:32:44.982Z,96
2023-02-19T00:36:10.238Z,96
2023-02-19T00:39:35.490Z,95
2023-02-19T00:43:00.745Z,96
2023-02-19T00:46:26.063Z,96
2023-02-19T00:49:51.334Z,96
2023-02-19T00:53:16.620Z,96
2023-02-19T00:56:41.839Z,96
2023-02-19T01:00:07.075Z,96
2023-02-19T01:03:32.344Z,96
2023-02-19T01:06:57.601Z,96
2023-02-19T01:10:22.853Z,96
2023-02-19T01:13:48.133Z,96
2023-02-19T01:17:13.401Z,97
2023-02-19T01:20:38.666Z,97
2023-02-19T01:24:03.884Z,97
2023-02-19T01:27:29.155Z,97
2023-02-19T01:30:54.462Z,97
2023-02-19T01:34:19.665Z,96
2023-02-19T01:37:44.944Z,96
2023-02-19T01:41:10.458Z,97
2023-02-19T01:44:35.470Z,96
2023-02-19T01:48:00.735Z,96
2023-02-19T01:51:25.979Z,96
2023-02-19T01:54:51.247Z,96
2023-02-19T01:58:16.483Z,96
2023-02-19T02:01:41.768Z,96
2023-02-19T02:05:06.984Z,96
2023-02-19T02:08:32.263Z,96
2023-02-19T02:11:57.582Z,96
2023-02-19T02:15:22.794Z,96
2023-02-19T02:18:48.058Z,96
2023-02-19T02:22:13.321Z,96
2023-02-19T02:25:38.572Z,96
2023-02-19T02:29:03.870Z,95
2023-02-19T02:32:29.078Z,96
2023-02-19T02:35:54.345Z,96
2023-02-19T02:39:19.574Z,96
2023-02-19T02:42:44.851Z,96
2023-02-19T02:46:10.106Z,96
2023-02-19T02:49:35.382Z,96
2023-02-19T02:53:00.614Z,96
2023-02-19T02:56:25.861Z,97
2023-02-19T02:59:51.133Z,97
2023-02-19T03:03:17.291Z,97
2023-02-19T03:06:42.568Z,97
2023-02-19T03:10:07.809Z,97
2023-02-19T03:13:33.032Z,97
2023-02-19T03:16:58.289Z,96
2023-02-19T03:20:23.570Z,96
2023-02-19T03:23:48.831Z,96
2023-02-19T03:27:14.104Z,97
2023-02-19T03:30:39.377Z,96
2023-02-19T03:34:04.634Z,97
2023-02-19T03:37:29.865Z,96
2023-02-19T03:40:55.152Z,96
2023-02-19T03:44:20.402Z,96
2023-02-19T03:47:45.674Z,97
2023-02-19T03:51:11.255Z,96
2023-02-19T03:54:36.193Z,96
2023-02-19T03:58:01.415Z,96
2023-02-19T04:01:26.701Z,96
2023-02-19T04:04:52.022Z,95
2023-02-19T04:08:17.205Z,95
2023-02-19T04:11:43.186Z,95
2023-02-19T04:15:08.425Z,94
2023-02-19T04:18:33.695Z,94
2023-02-19T04:21:58.959Z,94
2023-02-19T04:25:24.238Z,94
2023-02-19T04:28:49.478Z,94
2023-02-19T04:32:14.718Z,94
2023-02-19T04:35:40.031Z,93
2023-02-19T04:39:05.259Z,94
2023-02-19T04:42:30.617Z,93
2023-02-19T04:45:55.895Z,93
2023-02-19T04:49:21.119Z,93
2023-02-19T04:52:46.365Z,93
2023-02-19T04:56:11.598Z,92
2023-02-19T04:59:36.835Z,92
2023-02-19T05:03:02.083Z,92
2023-02-19T05:06:27.401Z,92
2023-02-19T05:09:52.632Z,93
2023-02-19T05:13:17.920Z,93
2023-02-19T05:16:43.147Z,93
2023-02-19T05:20:08.429Z,93
2023-02-19T05:23:33.717Z,93
2023-02-19T05:26:59.003Z,93
2023-02-19T05:30:24.275Z,93
2023-02-19T05:33:49.466Z,93
2023-02-19T05:37:14.743Z,93
2023-02-19T05:40:39.980Z,93
2023-02-19T05:44:05.256Z,93
2023-02-19T05:47:30.503Z,94
2023-02-19T05:50:55.788Z,94
2023-02-19T05:54:21.011Z,94
2023-02-19T05:57:46.271Z,93
2023-02-19T06:01:11.749Z,94
2023-02-19T06:04:36.806Z,94
2023-02-19T06:08:02.081Z,93
2023-02-19T06:11:27.324Z,93
2023-02-19T06:14:52.646Z,93
2023-02-19T06:18:17.920Z,93
2023-02-19T06:21:43.217Z,93
2023-02-19T06:25:08.491Z,93
2023-02-19T06:28:33.794Z,93
2023-02-19T06:31:59.223Z,93
2023-02-19T06:35:24.447Z,93
2023-02-19T06:38:49.734Z,94
2023-02-19T06:42:15.036Z,94
2023-02-19T06:45:40.318Z,95
2023-02-19T06:49:05.601Z,95
2023-02-19T06:52:30.866Z,96
2023-02-19T06:55:56.038Z,96
2023-02-19T06:59:21.332Z,96
2023-02-19T07:02:46.706Z,96
2023-02-19T07:06:12.014Z,96
2023-02-19T07:09:37.301Z,96
2023-02-19T07:13:02.565Z,95
2023-02-19T07:16:28.142Z,94
2023-02-19T07:19:53.726Z,93
2023-02-19T07:23:18.948Z,93
2023-02-19T07:26:44.194Z,94
2023-02-19T07:30:10.123Z,94
2023-02-19T07:33:35.645Z,95
2023-02-19T07:37:00.932Z,95
2023-02-19T07:40:26.619Z,95
2023-02-19T07:43:52.110Z,94
2023-02-19T07:47:17.341Z,94
2023-02-19T07:50:42.602Z,94
2023-02-19T07:54:13.128Z,94
2023-02-19T07:57:39.983Z,93
2023-02-19T08:02:05.609Z,94
2023-02-19T08:05:57.175Z,94
2023-02-19T08:09:37.710Z,94
2023-02-19T08:13:02.994Z,93
2023-02-19T08:16:41.052Z,93
2023-02-19T08:20:02.020Z,94
2023-02-19T08:23:27.387Z,94
2023-02-19T08:26:52.737Z,93
2023-02-19T08:30:20.786Z,93
2023-02-19T08:34:57.618Z,93
2023-02-19T08:38:33.111Z,93
2023-02-19T08:41:58.861Z,94
2023-02-19T08:45:24.056Z,94
2023-02-19T08:48:49.311Z,94
2023-02-19T08:53:08.273Z,94
2023-02-19T08:56:33.615Z,93
2023-02-19T09:00:00.487Z,93
2023-02-19T09:03:26.271Z,93
2023-02-19T09:06:51.566Z,93
2023-02-19T09:10:16.784Z,93
2023-02-19T09:13:42.025Z,93
2023-02-19T09:17:07.261Z,92
2023-02-19T09:20:32.529Z,91
2023-02-19T09:23:57.758Z,91
2023-02-19T09:27:23.035Z,91
2023-02-19T09:30:48.342Z,92
2023-02-19T09:34:13.587Z,91
2023-02-19T09:37:38.890Z,92
2023-02-19T09:41:04.133Z,91
2023-02-19T09:44:29.362Z,91
2023-02-19T09:47:54.619Z,90
2023-02-19T09:51:19.982Z,91
2023-02-19T09:54:45.236Z,90
2023-02-19T09:58:10.861Z,90
2023-02-19T10:01:36.514Z,88
2023-02-19T10:05:01.881Z,89
2023-02-19T10:08:27.156Z,88
2023-02-19T10:11:53.001Z,87
2023-02-19T10:15:18.389Z,87
2023-02-19T10:18:43.906Z,88
2023-02-19T10:22:09.142Z,88
2023-02-19T10:25:34.432Z,87
2023-02-19T10:28:59.670Z,87
2023-02-19T10:32:25.086Z,87
2023-02-19T10:35:50.269Z,86
2023-02-19T10:39:15.514Z,87
2023-02-19T10:42:40.800Z,86
2023-02-19T10:46:06.079Z,86
2023-02-19T10:49:31.282Z,84
2023-02-19T10:52:56.469Z,83
2023-02-19T10:56:21.700Z,83
2023-02-19T10:59:47.090Z,84
2023-02-19T11:03:12.424Z,84
2023-02-19T11:06:37.695Z,83
2023-02-19T11:10:02.958Z,82
2023-02-19T11:13:28.300Z,84
2023-02-19T11:16:53.522Z,84
2023-02-19T11:20:18.748Z,86
2023-02-19T11:23:43.919Z,87
2023-02-19T11:27:09.117Z,87
2023-02-19T11:30:36.195Z,89
2023-02-19T11:33:59.491Z,89
2023-02-19T11:37:24.672Z,90
2023-02-19T11:40:49.921Z,89
2023-02-19T11:44:15.127Z,89
2023-02-19T11:47:40.340Z,88
2023-02-19T11:51:05.510Z,89
2023-02-19T11:54:30.670Z,89
2023-02-19T11:57:55.844Z,89
2023-02-19T12:01:21.082Z,89
2023-02-19T12:04:46.276Z,88
2023-02-19T12:08:11.479Z,88
2023-02-19T12:11:36.737Z,88
2023-02-19T12:15:02.176Z,89
2023-02-19T12:18:27.342Z,89
2023-02-19T12:21:52.514Z,90
2023-02-19T12:25:17.698Z,89
2023-02-19T12:28:42.863Z,89
2023-02-19T12:32:08.087Z,90
2023-02-19T12:35:33.254Z,89
2023-02-19T12:38:58.433Z,89
2023-02-19T12:42:23.578Z,90
2023-02-19T12:45:48.773Z,90
2023-02-19T12:49:13.922Z,91
2023-02-19T12:52:39.082Z,90
2023-02-19T12:56:04.263Z,90
2023-02-19T12:59:29.465Z,90
2023-02-19T13:02:54.618Z,90
2023-02-19T13:06:19.807Z,90
2023-02-19T13:09:45.021Z,90
2023-02-19T13:13:10.174Z,89
2023-02-19T13:16:35.337Z,90
2023-02-19T13:20:00.620Z,90
2023-02-19T13:23:25.767Z,90
2023-02-19T13:26:50.930Z,90
2023-02-19T13:30:16.122Z,90
2023-02-19T13:33:41.238Z,90
2023-02-19T13:37:06.481Z,89
2023-02-19T13:40:31.647Z,89
2023-02-19T13:43:56.849Z,89
2023-02-19T13:47:22.034Z,89
2023-02-19T13:50:47.231Z,89
2023-02-19T13:54:12.408Z,89
2023-02-19T13:57:37.585Z,89
2023-02-19T14:01:02.929Z,88
2023-02-19T14:04:28.117Z,88
2023-02-19T14:07:53.329Z,88
2023-02-19T14:11:18.492Z,88
2023-02-19T14:14:43.704Z,88
2023-02-19T14:18:09.035Z,88
2023-02-19T14:21:34.550Z,88
2023-02-19T14:24:59.743Z,89
2023-02-19T14:28:24.994Z,88
2023-02-19T15:05:38.283Z,88
2023-02-19T15:09:03.520Z,87
2023-02-19T15:12:28.716Z,88
2023-02-19T15:15:53.929Z,88
2023-02-19T15:19:19.116Z,88
2023-02-19T15:22:44.312Z,88
2023-02-19T15:26:09.495Z,87
2023-02-19T15:29:34.689Z,88
2023-02-19T15:32:59.918Z,89
2023-02-19T15:36:25.108Z,89
2023-02-19T15:39:50.294Z,89
2023-02-19T15:43:15.484Z,88
2023-02-19T15:46:40.848Z,87
2023-02-19T15:50:05.961Z,87
2023-02-19T15:53:31.205Z,87
2023-02-19T15:56:56.333Z,88
2023-02-19T16:00:21.669Z,88
2023-02-19T16:03:46.836Z,89
2023-02-19T16:07:12.156Z,89
2023-02-19T16:10:37.303Z,89
2023-02-19T16:14:02.536Z,89
2023-02-19T16:17:27.677Z,89
2023-02-19T16:20:52.835Z,89
2023-02-19T16:24:17.989Z,89
2023-02-19T16:27:43.171Z,89
2023-02-19T16:31:08.361Z,89
2023-02-19T16:34:33.715Z,89
2023-02-19T16:37:58.624Z,89
2023-02-19T16:41:23.787Z,89
2023-02-19T16:44:48.930Z,89
2023-02-19T16:48:14.091Z,89
2023-02-19T16:51:39.260Z,89
2023-02-19T16:55:04.444Z,89
2023-02-19T16:58:29.664Z,89
2023-02-19T17:01:54.896Z,90
2023-02-19T17:05:20.146Z,90
2023-02-19T17:08:45.304Z,90
2023-02-19T17:12:10.451Z,90
2023-02-19T17:15:35.605Z,90
2023-02-19T17:19:00.774Z,90
2023-02-19T17:22:25.958Z,89
2023-02-19T17:25:51.096Z,89
2023-02-19T17:29:16.296Z,89
2023-02-19T17:32:41.566Z,89
2023-02-19T17:36:06.681Z,89
2023-02-19T17:39:31.891Z,89
2023-02-19T17:42:57.074Z,90
2023-02-19T17:46:22.221Z,90
2023-02-19T17:49:47.366Z,90
2023-02-19T17:53:12.605Z,90
2023-02-19T17:56:37.798Z,90
2023-02-19T18:00:02.992Z,91
2023-02-19T18:03:28.251Z,92
2023-02-19T18:06:53.474Z,91
2023-02-19T18:10:18.700Z,92
2023-02-19T18:13:43.957Z,92
2023-02-19T18:17:09.182Z,91
2023-02-19T18:20:34.387Z,91
2023-02-19T18:23:59.704Z,90
2023-02-19T18:27:25.032Z,91
2023-02-19T18:30:50.430Z,91
2023-02-19T18:34:15.534Z,92
2023-02-19T18:37:40.814Z,92
2023-02-19T18:41:06.129Z,92
2023-02-19T18:44:31.431Z,92
2023-02-19T18:47:56.695Z,92
2023-02-19T18:51:22.458Z,92
2023-02-19T18:54:47.709Z,93
2023-02-19T18:58:13.014Z,92
2023-02-19T19:01:38.429Z,93
2023-02-19T19:05:03.670Z,92
2023-02-19T19:08:30.642Z,92
2023-02-19T19:11:54.246Z,92
2023-02-19T19:15:19.582Z,92
2023-02-19T19:18:44.847Z,92
2023-02-19T19:22:10.148Z,92
2023-02-19T19:25:35.458Z,92
2023-02-19T19:29:00.787Z,91
2023-02-19T19:32:26.066Z,91
2023-02-19T19:35:51.373Z,92
2023-02-19T19:39:16.635Z,91
2023-02-19T19:42:43.598Z,91
2023-02-19T19:46:07.159Z,91
2023-02-19T19:49:32.406Z,91
2023-02-19T19:52:57.674Z,91
2023-02-19T19:56:22.959Z,91
2023-02-19T19:59:48.202Z,91
2023-02-19T20:03:13.441Z,91
2023-02-19T20:06:38.679Z,91
2023-02-19T20:10:03.945Z,91
2023-02-19T20:13:29.248Z,91
2023-02-19T20:16:54.555Z,91
2023-02-19T20:20:19.910Z,91
2023-02-19T20:23:45.151Z,91
2023-02-19T20:27:10.439Z,91
2023-02-19T20:30:35.763Z,90
2023-02-19T20:34:01.009Z,90
2023-02-19T20:37:26.315Z,90
2023-02-19T20:40:51.568Z,91
2023-02-19T20:44:16.841Z,91
2023-02-19T20:47:42.026Z,91
2023-02-19T20:51:07.191Z,91
2023-02-19T20:54:32.432Z,92
2023-02-19T20:57:57.682Z,92
2023-02-19T21:01:22.902Z,92
2023-02-19T21:04:48.072Z,92
2023-02-19T21:08:13.270Z,92
2023-02-19T21:11:38.412Z,92
2023-02-19T21:15:03.592Z,92
2023-02-19T21:18:28.855Z,92
2023-02-19T21:21:54.068Z,92
2023-02-19T21:25:19.259Z,92
2023-02-19T21:28:44.424Z,92
2023-02-19T21:32:09.713Z,92
2023-02-19T21:35:34.730Z,92
2023-02-19T21:38:59.949Z,92
2023-02-19T21:42:25.166Z,92
2023-02-19T21:45:50.337Z,92
2023-02-19T21:49:15.468Z,92
2023-02-19T21:52:40.696Z,92
2023-02-19T21:56:05.886Z,93
2023-02-19T21:59:31.108Z,92
2023-02-19T22:02:56.301Z,92
2023-02-19T22:06:21.506Z,92
2023-02-19T22:09:46.733Z,92
2023-02-19T22:13:11.981Z,92
2023-02-19T22:16:37.298Z,92
2023-02-19T22:20:02.388Z,92
2023-02-19T22:23:27.637Z,92
2023-02-19T22:26:52.801Z,92
2023-02-19T22:30:17.982Z,92
2023-02-19T22:33:43.128Z,93
2023-02-19T22:37:08.378Z,93
2023-02-19T22:40:33.576Z,92
2023-02-19T22:43:59.005Z,93
2023-02-19T22:47:24.158Z,93
2023-02-19T22:50:49.421Z,94
2023-02-19T22:54:14.735Z,93
2023-02-19T22:57:39.881Z,93
2023-02-19T23:01:05.067Z,93
2023-02-19T23:04:30.208Z,94
2023-02-19T23:07:55.399Z,94
2023-02-19T23:11:20.623Z,93
2023-02-19T23:14:45.848Z,93
2023-02-19T23:18:11.024Z,93
2023-02-19T23:21:36.251Z,93
2023-02-19T23:25:01.430Z,93
2023-02-19T23:28:26.605Z,93
2023-02-19T23:31:51.891Z,93
2023-02-19T23:35:16.970Z,93
2023-02-19T23:38:42.161Z,93
2023-02-19T23:42:07.363Z,92
2023-02-19T23:45:32.529Z,93
2023-02-19T23:48:57.746Z,93
2023-02-19T23:52:22.924Z,92
2023-02-19T23:55:48.119Z,92
2023-02-19T23:59:13.322Z,92
